Airfield :
LOGIN :

Register | Disclaimer

   EN    FR    IT 

 










Legend :    VFR   Marginal VFR   IFR   Intensive IFR   Very Intensive IFR
Visi :
Ceiling :
>= 8 km
>= 3000ft
5 to 8 km
1000 to 3000 ft
1500m to 5 km
500 to 1000 ft
800 to 1500m
200 to 500 ft
< 800m
< 200 ft
Symbols :   Thunderstorms  Fog  Heavy snow  Heavy precipitations  Wind > 20 kt
SIGMETs :     Misc.  Thunderstorms  Icing  Turbulence  Mountain Waves  Volcanic Ashes






- Airport Elevation : 726 ft
- IATA code : DIJ


LFSD - Dijon

CURRENT METAR :
  • 230900Z AUTO 14005KT 110V190 9999 FEW023/// SCT028/// OVC056/// ///CB 16/12 Q1017

EXPIRED METARs :
  • 230830Z AUTO 15004KT 100V190 9999 BKN020/// BKN030/// OVC052/// ///CB 16/11 Q1017
  • 230800Z AUTO 15006KT 110V200 9999 FEW044/// BKN054/// BKN076/// 16/12 Q1017
  • 230730Z AUTO 16004KT 9999 FEW008 SCT086 14/12 Q1017
  • 230700Z AUTO 17003KT 130V190 9999 FEW039 OVC086 14/12 Q1017
  • 230630Z AUTO VRB03KT 9999 FEW047 OVC088 14/12 Q1017
  • 230600Z AUTO 15005KT 9999 FEW049 BKN086 OVC110 13/12 Q1017
  • 230530Z AUTO 15003KT 9999 BKN049 BKN066 OVC082 13/12 Q1017
  • 230500Z AUTO 31002KT 9999 //////TCU 13/10 Q1017
  • 230430Z AUTO 26004KT 9999 ///TCU 13/10 Q1017

Expired Forecast.



MET'MAP, your aeronautical weather chart ! - Copyright ORBIFLY December 2007 - Disclaimer

ORBIFLY MET'MAP TEAM :

Programming & Development : Alexandra Zaïnal
Original concept : Baudouin d'Aumeries
Technical & hardware support : Manuel Goepfert
Assistance : Marc-Olivier Méhu




SOURCES & CREDITS :

   NOAA